sensor_id;sensor_type;location;lat;lon;timestamp;pressure;altitude;pressure_sealevel;temperature;humidity
15678;BME280;7939;50.814;6.368;2023-06-14T00:01:49;99664.94;;;24.75;37.95
15678;BME280;7939;50.814;6.368;2023-06-14T00:04:16;99666.00;;;24.73;38.01
15678;BME280;7939;50.814;6.368;2023-06-14T00:06:43;99668.72;;;24.71;38.08
15678;BME280;7939;50.814;6.368;2023-06-14T00:09:11;99669.72;;;24.69;38.02
15678;BME280;7939;50.814;6.368;2023-06-14T00:11:39;99667.31;;;24.66;37.98
15678;BME280;7939;50.814;6.368;2023-06-14T00:14:06;99663.91;;;24.64;38.14
15678;BME280;7939;50.814;6.368;2023-06-14T00:16:33;99664.94;;;24.61;37.95
15678;BME280;7939;50.814;6.368;2023-06-14T00:19:00;99666.81;;;24.59;38.18
15678;BME280;7939;50.814;6.368;2023-06-14T00:21:28;99665.16;;;24.58;38.00
15678;BME280;7939;50.814;6.368;2023-06-14T00:23:55;99665.31;;;24.55;38.29
15678;BME280;7939;50.814;6.368;2023-06-14T00:26:22;99664.47;;;24.55;38.14
15678;BME280;7939;50.814;6.368;2023-06-14T00:28:50;99665.50;;;24.52;38.10
15678;BME280;7939;50.814;6.368;2023-06-14T00:31:17;99661.28;;;24.49;38.34
15678;BME280;7939;50.814;6.368;2023-06-14T00:33:43;99673.63;;;24.47;38.32
15678;BME280;7939;50.814;6.368;2023-06-14T00:36:10;99665.03;;;24.45;38.32
15678;BME280;7939;50.814;6.368;2023-06-14T00:38:36;99668.66;;;24.43;38.25
15678;BME280;7939;50.814;6.368;2023-06-14T00:41:03;99668.84;;;24.40;38.50
15678;BME280;7939;50.814;6.368;2023-06-14T00:43:30;99669.78;;;24.39;38.18
15678;BME280;7939;50.814;6.368;2023-06-14T00:45:58;99676.84;;;24.37;38.41
15678;BME280;7939;50.814;6.368;2023-06-14T00:48:24;99675.28;;;24.34;38.61
15678;BME280;7939;50.814;6.368;2023-06-14T00:50:51;99671.00;;;24.32;38.38
15678;BME280;7939;50.814;6.368;2023-06-14T00:53:19;99670.19;;;24.31;38.26
15678;BME280;7939;50.814;6.368;2023-06-14T00:55:48;99680.72;;;24.30;38.57
15678;BME280;7939;50.814;6.368;2023-06-14T00:58:15;99678.22;;;24.28;38.42
15678;BME280;7939;50.814;6.368;2023-06-14T01:00:42;99662.69;;;24.25;38.30
15678;BME280;7939;50.814;6.368;2023-06-14T01:05:36;99669.88;;;24.21;38.80
15678;BME280;7939;50.814;6.368;2023-06-14T01:08:12;99670.03;;;24.18;38.87
15678;BME280;7939;50.814;6.368;2023-06-14T01:10:45;99669.31;;;24.16;38.68
15678;BME280;7939;50.814;6.368;2023-06-14T01:13:20;99673.78;;;24.14;38.57
15678;BME280;7939;50.814;6.368;2023-06-14T01:15:48;99672.28;;;24.10;39.05
15678;BME280;7939;50.814;6.368;2023-06-14T01:18:17;99674.03;;;24.10;38.62
15678;BME280;7939;50.814;6.368;2023-06-14T01:20:47;99679.44;;;24.07;39.05
15678;BME280;7939;50.814;6.368;2023-06-14T01:23:16;99676.91;;;24.05;38.92
15678;BME280;7939;50.814;6.368;2023-06-14T01:25:43;99680.44;;;24.04;38.69
15678;BME280;7939;50.814;6.368;2023-06-14T01:28:10;99678.78;;;24.03;38.81
15678;BME280;7939;50.814;6.368;2023-06-14T01:30:40;99683.31;;;24.00;38.87
15678;BME280;7939;50.814;6.368;2023-06-14T01:33:11;99674.75;;;23.98;39.12
15678;BME280;7939;50.814;6.368;2023-06-14T01:35:38;99682.56;;;23.98;39.10
15678;BME280;7939;50.814;6.368;2023-06-14T01:38:06;99680.13;;;23.94;39.00
15678;BME280;7939;50.814;6.368;2023-06-14T01:40:35;99682.81;;;23.93;38.99
15678;BME280;7939;50.814;6.368;2023-06-14T01:43:03;99690.75;;;23.91;38.99
15678;BME280;7939;50.814;6.368;2023-06-14T01:45:31;99682.19;;;23.89;38.92
15678;BME280;7939;50.814;6.368;2023-06-14T01:47:59;99682.25;;;23.88;38.99
15678;BME280;7939;50.814;6.368;2023-06-14T01:50:28;99677.13;;;23.86;38.90
15678;BME280;7939;50.814;6.368;2023-06-14T01:52:55;99691.09;;;23.85;39.41
15678;BME280;7939;50.814;6.368;2023-06-14T01:55:22;99679.06;;;23.83;39.05
15678;BME280;7939;50.814;6.368;2023-06-14T01:57:54;99679.97;;;23.82;39.06
15678;BME280;7939;50.814;6.368;2023-06-14T02:00:21;99694.78;;;23.81;39.47
15678;BME280;7939;50.814;6.368;2023-06-14T02:02:48;99694.03;;;23.79;39.07
15678;BME280;7939;50.814;6.368;2023-06-14T02:05:15;99700.28;;;23.77;39.54
15678;BME280;7939;50.814;6.368;2023-06-14T02:07:44;99701.19;;;23.76;39.29
15678;BME280;7939;50.814;6.368;2023-06-14T02:10:11;99696.16;;;23.73;39.13
15678;BME280;7939;50.814;6.368;2023-06-14T02:12:37;99689.25;;;23.72;39.55
15678;BME280;7939;50.814;6.368;2023-06-14T02:15:07;99692.97;;;23.67;39.52
15678;BME280;7939;50.814;6.368;2023-06-14T02:17:34;99693.78;;;23.68;39.49
15678;BME280;7939;50.814;6.368;2023-06-14T02:20:00;99687.84;;;23.66;39.68
15678;BME280;7939;50.814;6.368;2023-06-14T02:22:30;99694.91;;;23.64;39.41
15678;BME280;7939;50.814;6.368;2023-06-14T02:24:56;99696.75;;;23.62;39.86
15678;BME280;7939;50.814;6.368;2023-06-14T02:27:23;99692.50;;;23.59;39.70
15678;BME280;7939;50.814;6.368;2023-06-14T02:29:49;99697.81;;;23.58;39.74
15678;BME280;7939;50.814;6.368;2023-06-14T02:32:17;99700.59;;;23.55;39.64
15678;BME280;7939;50.814;6.368;2023-06-14T02:34:44;99701.53;;;23.54;39.73
15678;BME280;7939;50.814;6.368;2023-06-14T02:37:14;99704.28;;;23.51;39.51
15678;BME280;7939;50.814;6.368;2023-06-14T02:39:41;99700.91;;;23.49;39.77
15678;BME280;7939;50.814;6.368;2023-06-14T02:42:08;99699.34;;;23.46;39.64
15678;BME280;7939;50.814;6.368;2023-06-14T02:44:35;99694.22;;;23.45;39.81
15678;BME280;7939;50.814;6.368;2023-06-14T02:47:02;99689.97;;;23.42;40.20
15678;BME280;7939;50.814;6.368;2023-06-14T02:49:30;99694.34;;;23.41;40.19
15678;BME280;7939;50.814;6.368;2023-06-14T02:51:57;99693.59;;;23.39;40.04
15678;BME280;7939;50.814;6.368;2023-06-14T02:54:23;99697.16;;;23.38;40.08
15678;BME280;7939;50.814;6.368;2023-06-14T02:56:50;99695.53;;;23.36;39.90
15678;BME280;7939;50.814;6.368;2023-06-14T02:59:17;99700.00;;;23.34;39.98
15678;BME280;7939;50.814;6.368;2023-06-14T03:01:44;99711.41;;;23.31;40.26
15678;BME280;7939;50.814;6.368;2023-06-14T03:04:11;99700.97;;;23.31;40.25
15678;BME280;7939;50.814;6.368;2023-06-14T03:06:39;99702.84;;;23.29;40.59
15678;BME280;7939;50.814;6.368;2023-06-14T03:09:06;99704.59;;;23.29;40.36
15678;BME280;7939;50.814;6.368;2023-06-14T03:11:34;99707.31;;;23.27;40.20
15678;BME280;7939;50.814;6.368;2023-06-14T03:14:01;99706.53;;;23.25;40.25
15678;BME280;7939;50.814;6.368;2023-06-14T03:16:29;99717.88;;;23.24;40.03
15678;BME280;7939;50.814;6.368;2023-06-14T03:18:56;99707.53;;;23.23;40.35
15678;BME280;7939;50.814;6.368;2023-06-14T03:21:23;99714.63;;;23.21;40.35
15678;BME280;7939;50.814;6.368;2023-06-14T03:23:51;99707.88;;;23.17;40.27
15678;BME280;7939;50.814;6.368;2023-06-14T03:26:18;99714.94;;;23.14;40.36
15678;BME280;7939;50.814;6.368;2023-06-14T03:28:45;99714.09;;;23.14;40.46
15678;BME280;7939;50.814;6.368;2023-06-14T03:31:12;99720.28;;;23.11;40.41
15678;BME280;7939;50.814;6.368;2023-06-14T03:33:39;99716.94;;;23.09;40.25
15678;BME280;7939;50.814;6.368;2023-06-14T03:36:06;99720.47;;;23.08;40.46
15678;BME280;7939;50.814;6.368;2023-06-14T03:38:33;99717.97;;;23.07;40.55
15678;BME280;7939;50.814;6.368;2023-06-14T03:41:01;99723.22;;;23.05;40.49
15678;BME280;7939;50.814;6.368;2023-06-14T03:43:28;99717.25;;;23.03;40.70
15678;BME280;7939;50.814;6.368;2023-06-14T03:45:55;99728.69;;;23.01;40.43
15678;BME280;7939;50.814;6.368;2023-06-14T03:48:22;99727.00;;;23.00;40.66
15678;BME280;7939;50.814;6.368;2023-06-14T03:50:48;99730.53;;;22.99;40.86
15678;BME280;7939;50.814;6.368;2023-06-14T03:53:15;99734.06;;;22.98;40.70
15678;BME280;7939;50.814;6.368;2023-06-14T03:55:42;99731.63;;;22.95;40.65
15678;BME280;7939;50.814;6.368;2023-06-14T03:58:10;99735.97;;;22.94;40.96
15678;BME280;7939;50.814;6.368;2023-06-14T04:00:38;99740.34;;;22.94;40.84
15678;BME280;7939;50.814;6.368;2023-06-14T04:03:05;99739.59;;;22.92;40.64
15678;BME280;7939;50.814;6.368;2023-06-14T04:05:32;99740.59;;;22.89;40.78
15678;BME280;7939;50.814;6.368;2023-06-14T04:07:58;99734.59;;;22.87;40.85
15678;BME280;7939;50.814;6.368;2023-06-14T04:10:26;99734.59;;;22.87;41.25
15678;BME280;7939;50.814;6.368;2023-06-14T04:12:53;99739.03;;;22.85;41.01
15678;BME280;7939;50.814;6.368;2023-06-14T04:15:21;99739.03;;;22.85;40.95
15678;BME280;7939;50.814;6.368;2023-06-14T04:17:47;99744.31;;;22.83;41.18
15678;BME280;7939;50.814;6.368;2023-06-14T04:20:14;99743.50;;;22.83;41.05
15678;BME280;7939;50.814;6.368;2023-06-14T04:22:42;99747.03;;;22.82;40.93
15678;BME280;7939;50.814;6.368;2023-06-14T04:25:08;99743.53;;;22.81;41.14
15678;BME280;7939;50.814;6.368;2023-06-14T04:27:35;99751.34;;;22.81;41.19
15678;BME280;7939;50.814;6.368;2023-06-14T04:30:02;99745.31;;;22.81;41.02
15678;BME280;7939;50.814;6.368;2023-06-14T04:32:31;99747.06;;;22.80;41.37
15678;BME280;7939;50.814;6.368;2023-06-14T04:34:59;99745.31;;;22.81;41.52
15678;BME280;7939;50.814;6.368;2023-06-14T04:37:27;99743.63;;;22.80;41.58
15678;BME280;7939;50.814;6.368;2023-06-14T04:39:54;99741.88;;;22.80;41.49
15678;BME280;7939;50.814;6.368;2023-06-14T04:42:22;99744.47;;;22.80;41.49
15678;BME280;7939;50.814;6.368;2023-06-14T04:44:50;99749.69;;;22.80;41.46
15678;BME280;7939;50.814;6.368;2023-06-14T04:47:17;99748.84;;;22.80;41.38
15678;BME280;7939;50.814;6.368;2023-06-14T04:49:45;99752.38;;;22.79;41.19
15678;BME280;7939;50.814;6.368;2023-06-14T04:52:11;99753.13;;;22.81;41.51
15678;BME280;7939;50.814;6.368;2023-06-14T04:54:38;99755.72;;;22.81;41.34
15678;BME280;7939;50.814;6.368;2023-06-14T04:57:07;99760.88;;;22.82;41.81
15678;BME280;7939;50.814;6.368;2023-06-14T04:59:34;99759.13;;;22.83;41.63
15678;BME280;7939;50.814;6.368;2023-06-14T05:02:01;99762.47;;;22.85;41.85
15678;BME280;7939;50.814;6.368;2023-06-14T05:04:28;99766.84;;;22.84;41.64
15678;BME280;7939;50.814;6.368;2023-06-14T05:06:55;99763.41;;;22.84;41.66
15678;BME280;7939;50.814;6.368;2023-06-14T05:09:22;99762.56;;;22.83;41.50
15678;BME280;7939;50.814;6.368;2023-06-14T05:11:49;99769.53;;;22.83;41.80
15678;BME280;7939;50.814;6.368;2023-06-14T05:14:16;99765.16;;;22.83;41.95
15678;BME280;7939;50.814;6.368;2023-06-14T05:16:43;99773.00;;;22.83;41.69
15678;BME280;7939;50.814;6.368;2023-06-14T05:19:10;99771.31;;;22.82;41.90
15678;BME280;7939;50.814;6.368;2023-06-14T05:21:36;99779.13;;;22.82;41.75
15678;BME280;7939;50.814;6.368;2023-06-14T05:24:05;99777.41;;;22.81;41.68
15678;BME280;7939;50.814;6.368;2023-06-14T05:26:32;99782.56;;;22.83;41.67
15678;BME280;7939;50.814;6.368;2023-06-14T05:28:58;99783.50;;;22.82;41.66
15678;BME280;7939;50.814;6.368;2023-06-14T05:31:26;99786.16;;;22.80;41.60
15678;BME280;7939;50.814;6.368;2023-06-14T05:33:54;99785.31;;;22.80;41.77
15678;BME280;7939;50.814;6.368;2023-06-14T05:36:21;99787.91;;;22.80;41.59
15678;BME280;7939;50.814;6.368;2023-06-14T05:38:47;99784.66;;;22.76;41.99
15678;BME280;7939;50.814;6.368;2023-06-14T05:41:15;99789.78;;;22.78;41.80
15678;BME280;7939;50.814;6.368;2023-06-14T05:43:42;99791.53;;;22.77;41.99
15678;BME280;7939;50.814;6.368;2023-06-14T05:46:09;99783.72;;;22.77;41.70
15678;BME280;7939;50.814;6.368;2023-06-14T05:48:35;99801.97;;;22.77;42.10
15678;BME280;7939;50.814;6.368;2023-06-14T05:51:02;99801.97;;;22.77;42.07
15678;BME280;7939;50.814;6.368;2023-06-14T05:53:29;99811.53;;;22.77;41.79
15678;BME280;7939;50.814;6.368;2023-06-14T05:55:55;99821.03;;;22.78;41.89
15678;BME280;7939;50.814;6.368;2023-06-14T05:58:23;99822.81;;;22.77;41.91
15678;BME280;7939;50.814;6.368;2023-06-14T06:00:50;99827.09;;;22.78;41.84
15678;BME280;7939;50.814;6.368;2023-06-14T06:03:18;99821.03;;;22.78;41.91
15678;BME280;7939;50.814;6.368;2023-06-14T06:05:46;99822.72;;;22.79;41.88
15678;BME280;7939;50.814;6.368;2023-06-14T06:08:12;99824.47;;;22.78;41.81
15678;BME280;7939;50.814;6.368;2023-06-14T06:10:39;99824.41;;;22.80;42.05
15678;BME280;7939;50.814;6.368;2023-06-14T06:13:06;99823.56;;;22.79;41.71
15678;BME280;7939;50.814;6.368;2023-06-14T06:15:34;99827.00;;;22.80;41.61
15678;BME280;7939;50.814;6.368;2023-06-14T06:18:00;99824.47;;;22.78;41.71
15678;BME280;7939;50.814;6.368;2023-06-14T06:20:29;99837.44;;;22.80;41.91
15678;BME280;7939;50.814;6.368;2023-06-14T06:22:57;99840.88;;;22.80;42.18
15678;BME280;7939;50.814;6.368;2023-06-14T06:25:24;99836.59;;;22.79;41.54
15678;BME280;7939;50.814;6.368;2023-06-14T06:27:51;99835.66;;;22.80;41.36
15678;BME280;7939;50.814;6.368;2023-06-14T06:30:19;99831.28;;;22.81;41.19
15678;BME280;7939;50.814;6.368;2023-06-14T06:32:47;99842.56;;;22.81;41.04
15678;BME280;7939;50.814;6.368;2023-06-14T06:35:14;99837.50;;;22.78;41.21
15678;BME280;7939;50.814;6.368;2023-06-14T06:37:41;99842.66;;;22.80;41.20
15678;BME280;7939;50.814;6.368;2023-06-14T06:40:08;99840.97;;;22.79;41.18
15678;BME280;7939;50.814;6.368;2023-06-14T06:42:35;99847.00;;;22.79;41.16
15678;BME280;7939;50.814;6.368;2023-06-14T06:45:03;99852.09;;;22.82;40.90
15678;BME280;7939;50.814;6.368;2023-06-14T06:47:30;99863.34;;;22.83;40.88
15678;BME280;7939;50.814;6.368;2023-06-14T06:49:58;99860.88;;;22.80;40.85
15678;BME280;7939;50.814;6.368;2023-06-14T06:52:24;99860.88;;;22.80;40.98
15678;BME280;7939;50.814;6.368;2023-06-14T06:54:51;99865.13;;;22.82;41.05
15678;BME280;7939;50.814;6.368;2023-06-14T06:57:20;99864.28;;;22.82;40.71
15678;BME280;7939;50.814;6.368;2023-06-14T06:59:48;99866.19;;;22.78;41.07
15678;BME280;7939;50.814;6.368;2023-06-14T07:02:14;99866.94;;;22.80;41.07
15678;BME280;7939;50.814;6.368;2023-06-14T07:04:41;99862.50;;;22.82;40.88
15678;BME280;7939;50.814;6.368;2023-06-14T07:09:35;99875.28;;;22.88;40.64
15678;BME280;7939;50.814;6.368;2023-06-14T07:14:29;99877.09;;;22.86;40.47
15678;BME280;7939;50.814;6.368;2023-06-14T07:16:55;99878.81;;;22.86;40.33
15678;BME280;7939;50.814;6.368;2023-06-14T07:19:22;99883.00;;;22.90;40.47
15678;BME280;7939;50.814;6.368;2023-06-14T07:21:49;99878.63;;;22.91;40.42
15678;BME280;7939;50.814;6.368;2023-06-14T07:24:17;99882.84;;;22.93;40.26
15678;BME280;7939;50.814;6.368;2023-06-14T07:26:43;99885.31;;;22.96;40.17
15678;BME280;7939;50.814;6.368;2023-06-14T07:29:10;99891.44;;;22.95;39.75
15678;BME280;7939;50.814;6.368;2023-06-14T07:31:37;99883.47;;;22.98;39.99
15678;BME280;7939;50.814;6.368;2023-06-14T07:34:03;99878.13;;;23.01;39.44
15678;BME280;7939;50.814;6.368;2023-06-14T07:36:30;99881.19;;;23.09;39.71
15678;BME280;7939;50.814;6.368;2023-06-14T07:38:57;99881.00;;;23.12;39.33
15678;BME280;7939;50.814;6.368;2023-06-14T07:41:25;99883.16;;;23.22;39.10
15678;BME280;7939;50.814;6.368;2023-06-14T07:43:52;99876.81;;;23.27;39.16
15678;BME280;7939;50.814;6.368;2023-06-14T07:46:19;99882.16;;;23.24;39.29
15678;BME280;7939;50.814;6.368;2023-06-14T07:48:45;99885.28;;;23.31;39.34
15678;BME280;7939;50.814;6.368;2023-06-14T07:51:12;99881.41;;;23.39;38.76
15678;BME280;7939;50.814;6.368;2023-06-14T07:53:39;99890.06;;;23.40;39.08
15678;BME280;7939;50.814;6.368;2023-06-14T07:56:06;99888.06;;;23.45;38.50
15678;BME280;7939;50.814;6.368;2023-06-14T07:58:34;99891.66;;;23.42;38.53
15678;BME280;7939;50.814;6.368;2023-06-14T08:01:00;99881.84;;;23.48;38.27
15678;BME280;7939;50.814;6.368;2023-06-14T08:03:31;99889.44;;;23.52;37.84
15678;BME280;7939;50.814;6.368;2023-06-14T08:05:58;99883.97;;;23.57;37.74
15678;BME280;7939;50.814;6.368;2023-06-14T08:08:25;99888.56;;;23.69;37.63
15678;BME280;7939;50.814;6.368;2023-06-14T08:10:52;99887.25;;;23.78;37.06
15678;BME280;7939;50.814;6.368;2023-06-14T08:13:19;99889.78;;;23.79;36.98
15678;BME280;7939;50.814;6.368;2023-06-14T08:15:47;99886.94;;;23.84;37.01
15678;BME280;7939;50.814;6.368;2023-06-14T08:18:14;99894.34;;;23.91;36.80
15678;BME280;7939;50.814;6.368;2023-06-14T08:20:41;99899.66;;;23.90;36.98
15678;BME280;7939;50.814;6.368;2023-06-14T08:23:09;99895.38;;;23.89;37.36
15678;BME280;7939;50.814;6.368;2023-06-14T08:25:35;99897.72;;;23.93;36.92
15678;BME280;7939;50.814;6.368;2023-06-14T08:28:02;99886.94;;;24.00;36.87
15678;BME280;7939;50.814;6.368;2023-06-14T08:30:28;99889.41;;;24.03;36.94
15678;BME280;7939;50.814;6.368;2023-06-14T08:32:56;99897.16;;;24.04;36.79
15678;BME280;7939;50.814;6.368;2023-06-14T08:35:23;99891.69;;;24.09;36.83
15678;BME280;7939;50.814;6.368;2023-06-14T08:37:50;99899.34;;;24.12;37.00
15678;BME280;7939;50.814;6.368;2023-06-14T08:40:19;99895.75;;;24.14;36.92
15678;BME280;7939;50.814;6.368;2023-06-14T08:42:48;99900.63;;;24.20;36.64
15678;BME280;7939;50.814;6.368;2023-06-14T08:45:16;99893.56;;;24.22;36.66
15678;BME280;7939;50.814;6.368;2023-06-14T08:47:43;99895.09;;;24.27;36.48
15678;BME280;7939;50.814;6.368;2023-06-14T08:50:13;99888.00;;;24.29;36.57
15678;BME280;7939;50.814;6.368;2023-06-14T08:52:45;99892.06;;;24.34;36.84
15678;BME280;7939;50.814;6.368;2023-06-14T08:55:16;99891.81;;;24.39;36.18
15678;BME280;7939;50.814;6.368;2023-06-14T08:57:46;99894.06;;;24.45;36.14
15678;BME280;7939;50.814;6.368;2023-06-14T09:00:13;99892.22;;;24.47;36.57
15678;BME280;7939;50.814;6.368;2023-06-14T09:02:40;99890.56;;;24.46;36.08
15678;BME280;7939;50.814;6.368;2023-06-14T09:05:09;99899.78;;;24.67;35.82
15678;BME280;7939;50.814;6.368;2023-06-14T09:07:37;99898.66;;;24.87;34.87
15678;BME280;7939;50.814;6.368;2023-06-14T09:10:08;99893.28;;;25.20;34.65
15678;BME280;7939;50.814;6.368;2023-06-14T09:12:35;99892.88;;;25.42;33.95
15678;BME280;7939;50.814;6.368;2023-06-14T09:15:02;99898.94;;;25.57;34.22
15678;BME280;7939;50.814;6.368;2023-06-14T09:17:32;99900.75;;;25.71;33.92
15678;BME280;7939;50.814;6.368;2023-06-14T09:19:59;99901.16;;;25.79;33.77
15678;BME280;7939;50.814;6.368;2023-06-14T09:22:25;99898.16;;;25.85;33.53
15678;BME280;7939;50.814;6.368;2023-06-14T09:24:54;99891.41;;;25.95;33.63
15678;BME280;7939;50.814;6.368;2023-06-14T09:27:20;99896.09;;;26.04;33.90
15678;BME280;7939;50.814;6.368;2023-06-14T09:29:47;99907.66;;;26.15;33.88
15678;BME280;7939;50.814;6.368;2023-06-14T09:32:14;99903.53;;;26.25;33.30
15678;BME280;7939;50.814;6.368;2023-06-14T09:34:41;99894.44;;;26.30;33.32
15678;BME280;7939;50.814;6.368;2023-06-14T09:37:07;99899.19;;;26.38;33.11
15678;BME280;7939;50.814;6.368;2023-06-14T09:39:34;99897.25;;;26.42;32.61
15678;BME280;7939;50.814;6.368;2023-06-14T09:42:16;99896.03;;;26.47;32.67
15678;BME280;7939;50.814;6.368;2023-06-14T09:44:45;99894.81;;;26.53;32.92
15678;BME280;7939;50.814;6.368;2023-06-14T09:47:14;99891.63;;;26.48;32.73
15678;BME280;7939;50.814;6.368;2023-06-14T09:49:42;99893.94;;;26.52;32.80
15678;BME280;7939;50.814;6.368;2023-06-14T09:52:10;99884.56;;;26.62;32.99
15678;BME280;7939;50.814;6.368;2023-06-14T09:54:41;99886.59;;;26.72;33.13
15678;BME280;7939;50.814;6.368;2023-06-14T09:57:10;99890.69;;;26.76;33.40
15678;BME280;7939;50.814;6.368;2023-06-14T09:59:40;99884.31;;;26.80;32.83
15678;BME280;7939;50.814;6.368;2023-06-14T10:02:11;99885.88;;;26.82;33.05
15678;BME280;7939;50.814;6.368;2023-06-14T10:04:46;99881.38;;;26.84;32.28
15678;BME280;7939;50.814;6.368;2023-06-14T10:07:15;99887.25;;;26.88;31.93
15678;BME280;7939;50.814;6.368;2023-06-14T10:09:44;99886.31;;;26.89;30.68
15678;BME280;7939;50.814;6.368;2023-06-14T10:12:16;99889.03;;;26.87;31.40
15678;BME280;7939;50.814;6.368;2023-06-14T10:14:48;99886.22;;;26.91;30.87
15678;BME280;7939;50.814;6.368;2023-06-14T10:17:22;99886.22;;;26.91;30.54
15678;BME280;7939;50.814;6.368;2023-06-14T10:19:55;99873.44;;;26.99;30.88
15678;BME280;7939;50.814;6.368;2023-06-14T10:22:28;99872.50;;;27.00;31.39
15678;BME280;7939;50.814;6.368;2023-06-14T10:24:56;99882.69;;;27.04;30.83
15678;BME280;7939;50.814;6.368;2023-06-14T10:27:24;99865.81;;;27.08;31.04
15678;BME280;7939;50.814;6.368;2023-06-14T10:30:03;99877.78;;;27.12;31.16
15678;BME280;7939;50.814;6.368;2023-06-14T10:32:31;99879.47;;;27.13;31.36
15678;BME280;7939;50.814;6.368;2023-06-14T10:35:00;99870.75;;;27.13;29.59
15678;BME280;7939;50.814;6.368;2023-06-14T10:37:27;99873.06;;;27.18;29.72
15678;BME280;7939;50.814;6.368;2023-06-14T10:39:54;99873.19;;;27.16;30.35
15678;BME280;7939;50.814;6.368;2023-06-14T10:42:21;99871.00;;;27.23;30.14
15678;BME280;7939;50.814;6.368;2023-06-14T10:44:53;99873.81;;;27.20;29.91
15678;BME280;7939;50.814;6.368;2023-06-14T10:47:23;99874.44;;;27.23;28.93
15678;BME280;7939;50.814;6.368;2023-06-14T10:49:52;99876.13;;;27.24;29.54
15678;BME280;7939;50.814;6.368;2023-06-14T10:52:26;99869.75;;;27.28;29.89
15678;BME280;7939;50.814;6.368;2023-06-14T10:55:08;99868.44;;;27.34;29.70
15678;BME280;7939;50.814;6.368;2023-06-14T10:57:37;99868.56;;;27.32;29.40
15678;BME280;7939;50.814;6.368;2023-06-14T11:00:07;99873.09;;;27.30;29.71
15678;BME280;7939;50.814;6.368;2023-06-14T11:05:51;99869.75;;;27.41;29.96
15678;BME280;7939;50.814;6.368;2023-06-14T11:08:33;99861.88;;;27.41;29.68
15678;BME280;7939;50.814;6.368;2023-06-14T11:11:06;99869.63;;;27.42;29.25
15678;BME280;7939;50.814;6.368;2023-06-14T11:13:34;99871.06;;;27.47;29.31
15678;BME280;7939;50.814;6.368;2023-06-14T11:16:10;99857.94;;;27.47;28.50
15678;BME280;7939;50.814;6.368;2023-06-14T11:18:37;99878.03;;;27.48;28.28
15678;BME280;7939;50.814;6.368;2023-06-14T11:21:03;99871.06;;;27.47;28.39
15678;BME280;7939;50.814;6.368;2023-06-14T11:23:30;99872.78;;;27.48;29.39
15678;BME280;7939;50.814;6.368;2023-06-14T11:25:56;99864.91;;;27.48;28.83
15678;BME280;7939;50.814;6.368;2023-06-14T11:28:23;99876.31;;;27.47;29.24
15678;BME280;7939;50.814;6.368;2023-06-14T11:30:59;99866.78;;;27.46;28.66
15678;BME280;7939;50.814;6.368;2023-06-14T11:33:27;99868.44;;;27.47;29.11
15678;BME280;7939;50.814;6.368;2023-06-14T11:35:54;99863.84;;;27.50;28.99
15678;BME280;7939;50.814;6.368;2023-06-14T11:38:21;99866.16;;;27.55;28.84
15678;BME280;7939;50.814;6.368;2023-06-14T11:40:47;99861.94;;;27.52;29.20
15678;BME280;7939;50.814;6.368;2023-06-14T11:43:14;99859.00;;;27.57;29.76
15678;BME280;7939;50.814;6.368;2023-06-14T11:45:40;99861.63;;;27.57;29.01
15678;BME280;7939;50.814;6.368;2023-06-14T11:48:07;99865.00;;;27.59;29.25
15678;BME280;7939;50.814;6.368;2023-06-14T11:50:37;99865.63;;;27.62;29.73
15678;BME280;7939;50.814;6.368;2023-06-14T11:53:06;99864.78;;;27.62;29.61
15678;BME280;7939;50.814;6.368;2023-06-14T11:55:36;99858.69;;;27.61;29.63
15678;BME280;7939;50.814;6.368;2023-06-14T11:58:02;99863.72;;;27.64;29.72
15678;BME280;7939;50.814;6.368;2023-06-14T12:00:30;99863.72;;;27.64;29.80
15678;BME280;7939;50.814;6.368;2023-06-14T12:02:57;99859.22;;;27.66;29.61
15678;BME280;7939;50.814;6.368;2023-06-14T12:05:24;99863.84;;;27.63;29.60
15678;BME280;7939;50.814;6.368;2023-06-14T12:07:59;99865.94;;;27.58;29.20
15678;BME280;7939;50.814;6.368;2023-06-14T12:10:27;99865.81;;;27.47;29.98
15678;BME280;7939;50.814;6.368;2023-06-14T12:12:57;99866.16;;;27.42;29.48
15678;BME280;7939;50.814;6.368;2023-06-14T12:15:24;99861.94;;;27.39;29.14
15678;BME280;7939;50.814;6.368;2023-06-14T12:17:54;99864.91;;;27.35;30.08
15678;BME280;7939;50.814;6.368;2023-06-14T12:20:21;99866.06;;;27.31;30.04
15678;BME280;7939;50.814;6.368;2023-06-14T12:22:52;99870.03;;;27.24;29.56
15678;BME280;7939;50.814;6.368;2023-06-14T12:25:30;99870.44;;;27.18;30.18
15678;BME280;7939;50.814;6.368;2023-06-14T12:27:58;99865.41;;;27.14;30.46
15678;BME280;7939;50.814;6.368;2023-06-14T12:30:25;99868.34;;;27.10;30.05
15678;BME280;7939;50.814;6.368;2023-06-14T12:32:51;99863.41;;;27.05;30.46
15678;BME280;7939;50.814;6.368;2023-06-14T12:35:18;99864.25;;;27.06;29.91
15678;BME280;7939;50.814;6.368;2023-06-14T12:37:45;99851.28;;;27.03;30.26
15678;BME280;7939;50.814;6.368;2023-06-14T12:40:12;99853.19;;;27.01;30.02
15678;BME280;7939;50.814;6.368;2023-06-14T12:42:41;99853.03;;;27.29;30.42
15678;BME280;7939;50.814;6.368;2023-06-14T12:45:08;99860.28;;;27.51;30.73
15678;BME280;7939;50.814;6.368;2023-06-14T12:47:36;99867.09;;;27.66;30.07
15678;BME280;7939;50.814;6.368;2023-06-14T12:50:02;99858.84;;;27.73;29.75
15678;BME280;7939;50.814;6.368;2023-06-14T12:52:29;99856.25;;;27.84;29.71
15678;BME280;7939;50.814;6.368;2023-06-14T12:54:56;99861.84;;;27.92;29.34
15678;BME280;7939;50.814;6.368;2023-06-14T12:57:23;99859.72;;;27.97;29.40
15678;BME280;7939;50.814;6.368;2023-06-14T12:59:51;99862.66;;;28.05;29.72
15678;BME280;7939;50.814;6.368;2023-06-14T13:02:20;99854.44;;;28.10;29.85
15678;BME280;7939;50.814;6.368;2023-06-14T13:04:47;99860.63;;;28.09;29.06
15678;BME280;7939;50.814;6.368;2023-06-14T13:07:15;99857.47;;;28.16;29.30
15678;BME280;7939;50.814;6.368;2023-06-14T13:09:42;99854.97;;;28.02;29.09
15678;BME280;7939;50.814;6.368;2023-06-14T13:12:09;99864.31;;;28.06;29.46
15678;BME280;7939;50.814;6.368;2023-06-14T13:14:37;99856.97;;;28.11;29.72
15678;BME280;7939;50.814;6.368;2023-06-14T13:17:06;99854.09;;;28.14;30.18
15678;BME280;7939;50.814;6.368;2023-06-14T13:19:32;99859.34;;;28.14;29.68
15678;BME280;7939;50.814;6.368;2023-06-14T13:21:59;99856.84;;;28.13;29.77
15678;BME280;7939;50.814;6.368;2023-06-14T13:24:25;99864.84;;;28.11;29.67